sensor_id;sensor_type;location;lat;lon;timestamp;P1;durP1;ratioP1;P2;durP2;ratioP2
68993;SDS011;56054;50.968;5.816;2023-11-19T00:02:05;3.90;;;1.77;;
68993;SDS011;56054;50.968;5.816;2023-11-19T00:05:12;3.23;;;1.90;;
68993;SDS011;56054;50.968;5.816;2023-11-19T00:08:19;3.63;;;1.90;;
68993;SDS011;56054;50.968;5.816;2023-11-19T00:11:26;2.60;;;1.80;;
68993;SDS011;56054;50.968;5.816;2023-11-19T00:14:34;1.67;;;1.50;;
68993;SDS011;56054;50.968;5.816;2023-11-19T00:17:41;2.27;;;1.33;;
68993;SDS011;56054;50.968;5.816;2023-11-19T00:20:49;3.83;;;1.57;;
68993;SDS011;56054;50.968;5.816;2023-11-19T00:23:56;1.87;;;1.47;;
68993;SDS011;56054;50.968;5.816;2023-11-19T00:27:06;2.77;;;1.57;;
68993;SDS011;56054;50.968;5.816;2023-11-19T00:30:13;1.30;;;1.00;;
68993;SDS011;56054;50.968;5.816;2023-11-19T00:33:20;1.93;;;1.40;;
68993;SDS011;56054;50.968;5.816;2023-11-19T00:36:28;1.53;;;1.17;;
68993;SDS011;56054;50.968;5.816;2023-11-19T00:39:34;1.80;;;1.33;;
68993;SDS011;56054;50.968;5.816;2023-11-19T00:42:41;1.80;;;1.40;;
68993;SDS011;56054;50.968;5.816;2023-11-19T00:45:48;7.27;;;1.90;;
68993;SDS011;56054;50.968;5.816;2023-11-19T00:48:55;2.10;;;1.70;;
68993;SDS011;56054;50.968;5.816;2023-11-19T00:52:03;3.30;;;1.80;;
68993;SDS011;56054;50.968;5.816;2023-11-19T00:55:09;2.50;;;1.70;;
68993;SDS011;56054;50.968;5.816;2023-11-19T00:58:16;3.73;;;1.63;;
68993;SDS011;56054;50.968;5.816;2023-11-19T01:01:24;4.17;;;1.67;;
68993;SDS011;56054;50.968;5.816;2023-11-19T01:04:36;5.50;;;1.83;;
68993;SDS011;56054;50.968;5.816;2023-11-19T01:07:43;5.77;;;1.80;;
68993;SDS011;56054;50.968;5.816;2023-11-19T01:10:51;8.07;;;1.87;;
68993;SDS011;56054;50.968;5.816;2023-11-19T01:13:57;4.50;;;1.80;;
68993;SDS011;56054;50.968;5.816;2023-11-19T01:17:04;4.90;;;2.07;;
68993;SDS011;56054;50.968;5.816;2023-11-19T01:20:12;3.77;;;1.77;;
68993;SDS011;56054;50.968;5.816;2023-11-19T01:23:18;6.20;;;1.90;;
68993;SDS011;56054;50.968;5.816;2023-11-19T01:26:26;5.47;;;2.10;;
68993;SDS011;56054;50.968;5.816;2023-11-19T01:29:34;9.63;;;2.10;;
68993;SDS011;56054;50.968;5.816;2023-11-19T01:32:40;2.63;;;1.63;;
68993;SDS011;56054;50.968;5.816;2023-11-19T01:35:47;8.87;;;2.40;;
68993;SDS011;56054;50.968;5.816;2023-11-19T01:38:55;4.70;;;2.33;;
68993;SDS011;56054;50.968;5.816;2023-11-19T01:42:02;4.13;;;2.00;;
68993;SDS011;56054;50.968;5.816;2023-11-19T01:45:09;13.23;;;2.77;;
68993;SDS011;56054;50.968;5.816;2023-11-19T01:48:18;10.53;;;2.00;;
68993;SDS011;56054;50.968;5.816;2023-11-19T01:51:25;5.13;;;2.40;;
68993;SDS011;56054;50.968;5.816;2023-11-19T01:54:34;11.03;;;2.60;;
68993;SDS011;56054;50.968;5.816;2023-11-19T01:57:41;4.60;;;2.17;;
68993;SDS011;56054;50.968;5.816;2023-11-19T02:00:48;7.67;;;1.73;;
68993;SDS011;56054;50.968;5.816;2023-11-19T02:03:55;11.10;;;2.20;;
68993;SDS011;56054;50.968;5.816;2023-11-19T02:07:02;6.67;;;2.10;;
68993;SDS011;56054;50.968;5.816;2023-11-19T02:10:09;8.63;;;2.23;;
68993;SDS011;56054;50.968;5.816;2023-11-19T02:13:16;9.70;;;2.00;;
68993;SDS011;56054;50.968;5.816;2023-11-19T02:16:22;8.53;;;2.20;;
68993;SDS011;56054;50.968;5.816;2023-11-19T02:19:30;12.40;;;2.20;;
68993;SDS011;56054;50.968;5.816;2023-11-19T02:22:37;8.50;;;1.93;;
68993;SDS011;56054;50.968;5.816;2023-11-19T02:25:46;12.57;;;2.20;;
68993;SDS011;56054;50.968;5.816;2023-11-19T02:29:01;8.20;;;1.73;;
68993;SDS011;56054;50.968;5.816;2023-11-19T02:32:08;9.40;;;1.77;;
68993;SDS011;56054;50.968;5.816;2023-11-19T02:35:15;12.50;;;2.17;;
68993;SDS011;56054;50.968;5.816;2023-11-19T02:38:22;6.33;;;2.17;;
68993;SDS011;56054;50.968;5.816;2023-11-19T02:41:29;11.30;;;2.30;;
68993;SDS011;56054;50.968;5.816;2023-11-19T02:44:36;17.43;;;2.17;;
68993;SDS011;56054;50.968;5.816;2023-11-19T02:47:43;12.63;;;2.23;;
68993;SDS011;56054;50.968;5.816;2023-11-19T02:50:51;13.03;;;1.70;;
68993;SDS011;56054;50.968;5.816;2023-11-19T02:53:58;12.93;;;1.97;;
68993;SDS011;56054;50.968;5.816;2023-11-19T02:57:11;7.20;;;1.80;;
68993;SDS011;56054;50.968;5.816;2023-11-19T03:00:19;8.27;;;1.87;;
68993;SDS011;56054;50.968;5.816;2023-11-19T03:03:28;15.93;;;2.00;;
68993;SDS011;56054;50.968;5.816;2023-11-19T03:06:35;17.97;;;2.70;;
68993;SDS011;56054;50.968;5.816;2023-11-19T03:09:42;12.47;;;1.80;;
68993;SDS011;56054;50.968;5.816;2023-11-19T03:12:55;18.43;;;2.10;;
68993;SDS011;56054;50.968;5.816;2023-11-19T03:16:03;17.90;;;2.33;;
68993;SDS011;56054;50.968;5.816;2023-11-19T03:19:10;13.50;;;1.93;;
68993;SDS011;56054;50.968;5.816;2023-11-19T03:22:17;12.93;;;2.27;;
68993;SDS011;56054;50.968;5.816;2023-11-19T03:25:27;12.57;;;2.07;;
68993;SDS011;56054;50.968;5.816;2023-11-19T03:28:35;23.03;;;2.30;;
68993;SDS011;56054;50.968;5.816;2023-11-19T03:31:42;16.80;;;2.50;;
68993;SDS011;56054;50.968;5.816;2023-11-19T03:34:49;10.80;;;2.10;;
68993;SDS011;56054;50.968;5.816;2023-11-19T03:37:56;17.83;;;2.83;;
68993;SDS011;56054;50.968;5.816;2023-11-19T03:41:15;12.90;;;3.00;;
68993;SDS011;56054;50.968;5.816;2023-11-19T03:44:22;11.67;;;2.50;;
68993;SDS011;56054;50.968;5.816;2023-11-19T03:47:29;14.87;;;2.97;;
68993;SDS011;56054;50.968;5.816;2023-11-19T03:50:37;13.83;;;2.40;;
68993;SDS011;56054;50.968;5.816;2023-11-19T03:53:47;16.53;;;2.60;;
68993;SDS011;56054;50.968;5.816;2023-11-19T03:56:54;8.93;;;1.83;;
68993;SDS011;56054;50.968;5.816;2023-11-19T04:00:01;15.00;;;2.60;;
68993;SDS011;56054;50.968;5.816;2023-11-19T04:03:13;14.67;;;2.23;;
68993;SDS011;56054;50.968;5.816;2023-11-19T04:06:20;14.20;;;2.43;;
68993;SDS011;56054;50.968;5.816;2023-11-19T04:09:27;17.63;;;2.67;;
68993;SDS011;56054;50.968;5.816;2023-11-19T04:12:34;18.57;;;2.50;;
68993;SDS011;56054;50.968;5.816;2023-11-19T04:15:42;11.27;;;2.03;;
68993;SDS011;56054;50.968;5.816;2023-11-19T04:18:49;13.77;;;1.97;;
68993;SDS011;56054;50.968;5.816;2023-11-19T04:21:57;11.30;;;2.67;;
68993;SDS011;56054;50.968;5.816;2023-11-19T04:25:04;11.10;;;2.33;;
68993;SDS011;56054;50.968;5.816;2023-11-19T04:28:11;20.23;;;2.40;;
68993;SDS011;56054;50.968;5.816;2023-11-19T04:31:18;16.63;;;2.20;;
68993;SDS011;56054;50.968;5.816;2023-11-19T04:34:27;20.17;;;2.13;;
68993;SDS011;56054;50.968;5.816;2023-11-19T04:37:35;15.33;;;2.20;;
68993;SDS011;56054;50.968;5.816;2023-11-19T04:40:42;15.40;;;2.33;;
68993;SDS011;56054;50.968;5.816;2023-11-19T04:43:49;12.73;;;2.13;;
68993;SDS011;56054;50.968;5.816;2023-11-19T04:46:56;13.43;;;1.77;;
68993;SDS011;56054;50.968;5.816;2023-11-19T04:50:03;13.27;;;1.70;;
68993;SDS011;56054;50.968;5.816;2023-11-19T04:53:10;15.53;;;2.07;;
68993;SDS011;56054;50.968;5.816;2023-11-19T04:56:17;13.17;;;2.43;;
68993;SDS011;56054;50.968;5.816;2023-11-19T04:59:24;15.07;;;1.90;;
68993;SDS011;56054;50.968;5.816;2023-11-19T05:02:31;18.80;;;2.20;;
68993;SDS011;56054;50.968;5.816;2023-11-19T05:05:38;14.30;;;2.00;;
68993;SDS011;56054;50.968;5.816;2023-11-19T05:08:45;13.87;;;1.90;;
68993;SDS011;56054;50.968;5.816;2023-11-19T05:11:52;18.57;;;2.20;;
68993;SDS011;56054;50.968;5.816;2023-11-19T05:14:59;26.23;;;2.60;;
68993;SDS011;56054;50.968;5.816;2023-11-19T05:18:06;15.07;;;2.37;;
68993;SDS011;56054;50.968;5.816;2023-11-19T05:21:13;11.30;;;2.03;;
68993;SDS011;56054;50.968;5.816;2023-11-19T05:24:20;19.90;;;2.30;;
68993;SDS011;56054;50.968;5.816;2023-11-19T05:27:27;20.20;;;2.00;;
68993;SDS011;56054;50.968;5.816;2023-11-19T05:30:34;33.30;;;3.23;;
68993;SDS011;56054;50.968;5.816;2023-11-19T05:33:41;18.00;;;2.43;;
68993;SDS011;56054;50.968;5.816;2023-11-19T05:36:48;15.73;;;1.90;;
68993;SDS011;56054;50.968;5.816;2023-11-19T05:39:55;14.20;;;2.07;;
68993;SDS011;56054;50.968;5.816;2023-11-19T05:43:02;16.97;;;2.70;;
68993;SDS011;56054;50.968;5.816;2023-11-19T05:46:09;19.37;;;2.53;;
68993;SDS011;56054;50.968;5.816;2023-11-19T05:49:16;25.97;;;3.27;;
68993;SDS011;56054;50.968;5.816;2023-11-19T05:52:23;24.43;;;2.60;;
68993;SDS011;56054;50.968;5.816;2023-11-19T05:55:30;23.80;;;2.53;;
68993;SDS011;56054;50.968;5.816;2023-11-19T05:58:37;24.27;;;2.43;;
68993;SDS011;56054;50.968;5.816;2023-11-19T06:01:44;20.67;;;3.17;;
68993;SDS011;56054;50.968;5.816;2023-11-19T06:04:51;22.40;;;2.60;;
68993;SDS011;56054;50.968;5.816;2023-11-19T06:07:58;22.13;;;2.43;;
68993;SDS011;56054;50.968;5.816;2023-11-19T06:11:05;24.60;;;2.77;;
68993;SDS011;56054;50.968;5.816;2023-11-19T06:14:12;21.33;;;2.73;;
68993;SDS011;56054;50.968;5.816;2023-11-19T06:17:19;22.63;;;3.47;;
68993;SDS011;56054;50.968;5.816;2023-11-19T06:20:26;30.23;;;2.90;;
68993;SDS011;56054;50.968;5.816;2023-11-19T06:23:33;19.93;;;3.03;;
68993;SDS011;56054;50.968;5.816;2023-11-19T06:26:40;22.93;;;3.00;;
68993;SDS011;56054;50.968;5.816;2023-11-19T06:29:47;20.03;;;2.20;;
68993;SDS011;56054;50.968;5.816;2023-11-19T06:32:54;17.13;;;2.73;;
68993;SDS011;56054;50.968;5.816;2023-11-19T06:36:01;18.17;;;2.33;;
68993;SDS011;56054;50.968;5.816;2023-11-19T06:39:08;22.87;;;3.10;;
68993;SDS011;56054;50.968;5.816;2023-11-19T06:42:15;17.03;;;2.53;;
68993;SDS011;56054;50.968;5.816;2023-11-19T06:45:22;19.90;;;2.87;;
68993;SDS011;56054;50.968;5.816;2023-11-19T06:48:29;18.07;;;3.27;;
68993;SDS011;56054;50.968;5.816;2023-11-19T06:51:39;19.33;;;2.40;;
68993;SDS011;56054;50.968;5.816;2023-11-19T06:54:48;19.97;;;2.00;;
68993;SDS011;56054;50.968;5.816;2023-11-19T06:57:55;19.37;;;2.93;;
68993;SDS011;56054;50.968;5.816;2023-11-19T07:01:02;24.03;;;3.37;;
68993;SDS011;56054;50.968;5.816;2023-11-19T07:04:11;18.17;;;2.63;;
68993;SDS011;56054;50.968;5.816;2023-11-19T07:07:19;20.00;;;3.27;;
68993;SDS011;56054;50.968;5.816;2023-11-19T07:10:26;24.30;;;3.40;;
68993;SDS011;56054;50.968;5.816;2023-11-19T07:13:33;23.43;;;2.93;;
68993;SDS011;56054;50.968;5.816;2023-11-19T07:16:40;34.20;;;3.00;;
68993;SDS011;56054;50.968;5.816;2023-11-19T07:19:49;21.47;;;3.20;;
68993;SDS011;56054;50.968;5.816;2023-11-19T07:22:56;23.70;;;3.17;;
68993;SDS011;56054;50.968;5.816;2023-11-19T07:26:06;24.70;;;3.17;;
68993;SDS011;56054;50.968;5.816;2023-11-19T07:29:14;20.43;;;2.93;;
68993;SDS011;56054;50.968;5.816;2023-11-19T07:32:21;32.67;;;2.70;;
68993;SDS011;56054;50.968;5.816;2023-11-19T07:35:28;21.63;;;3.27;;
68993;SDS011;56054;50.968;5.816;2023-11-19T07:38:35;21.10;;;3.20;;
68993;SDS011;56054;50.968;5.816;2023-11-19T07:41:42;31.20;;;3.73;;
68993;SDS011;56054;50.968;5.816;2023-11-19T07:44:49;16.50;;;2.37;;
68993;SDS011;56054;50.968;5.816;2023-11-19T07:47:56;26.63;;;3.40;;
68993;SDS011;56054;50.968;5.816;2023-11-19T07:51:03;22.60;;;3.80;;
68993;SDS011;56054;50.968;5.816;2023-11-19T07:54:10;21.97;;;3.00;;
68993;SDS011;56054;50.968;5.816;2023-11-19T07:57:17;21.93;;;2.57;;
68993;SDS011;56054;50.968;5.816;2023-11-19T08:00:24;20.23;;;2.60;;
68993;SDS011;56054;50.968;5.816;2023-11-19T08:03:31;28.53;;;3.13;;
68993;SDS011;56054;50.968;5.816;2023-11-19T08:06:38;27.60;;;3.27;;
68993;SDS011;56054;50.968;5.816;2023-11-19T08:09:45;24.67;;;2.73;;
68993;SDS011;56054;50.968;5.816;2023-11-19T08:12:52;23.33;;;3.43;;
68993;SDS011;56054;50.968;5.816;2023-11-19T08:15:59;22.63;;;3.07;;
68993;SDS011;56054;50.968;5.816;2023-11-19T08:19:06;24.17;;;2.97;;
68993;SDS011;56054;50.968;5.816;2023-11-19T08:22:13;27.37;;;3.33;;
68993;SDS011;56054;50.968;5.816;2023-11-19T08:25:20;20.37;;;2.43;;
68993;SDS011;56054;50.968;5.816;2023-11-19T08:28:27;24.67;;;3.17;;
68993;SDS011;56054;50.968;5.816;2023-11-19T08:31:34;21.87;;;3.53;;
68993;SDS011;56054;50.968;5.816;2023-11-19T08:34:41;18.43;;;2.93;;
68993;SDS011;56054;50.968;5.816;2023-11-19T08:37:48;19.33;;;3.10;;
68993;SDS011;56054;50.968;5.816;2023-11-19T08:40:55;27.20;;;3.07;;
68993;SDS011;56054;50.968;5.816;2023-11-19T08:44:03;15.73;;;2.33;;
68993;SDS011;56054;50.968;5.816;2023-11-19T08:47:11;33.33;;;3.70;;
68993;SDS011;56054;50.968;5.816;2023-11-19T08:50:18;23.93;;;2.93;;
68993;SDS011;56054;50.968;5.816;2023-11-19T08:53:25;20.23;;;2.70;;
68993;SDS011;56054;50.968;5.816;2023-11-19T08:56:32;22.17;;;3.27;;
68993;SDS011;56054;50.968;5.816;2023-11-19T08:59:39;20.70;;;2.47;;
68993;SDS011;56054;50.968;5.816;2023-11-19T09:02:46;19.80;;;3.20;;
68993;SDS011;56054;50.968;5.816;2023-11-19T09:05:53;27.50;;;2.67;;
68993;SDS011;56054;50.968;5.816;2023-11-19T09:09:00;27.87;;;3.93;;
68993;SDS011;56054;50.968;5.816;2023-11-19T09:12:14;22.27;;;3.40;;
68993;SDS011;56054;50.968;5.816;2023-11-19T09:15:21;22.67;;;3.53;;
68993;SDS011;56054;50.968;5.816;2023-11-19T09:18:28;17.90;;;2.73;;
68993;SDS011;56054;50.968;5.816;2023-11-19T09:21:35;20.87;;;3.33;;
68993;SDS011;56054;50.968;5.816;2023-11-19T09:24:42;24.20;;;3.50;;
68993;SDS011;56054;50.968;5.816;2023-11-19T09:27:49;19.77;;;3.43;;
68993;SDS011;56054;50.968;5.816;2023-11-19T09:30:56;21.43;;;3.37;;
68993;SDS011;56054;50.968;5.816;2023-11-19T09:34:03;20.70;;;3.97;;
68993;SDS011;56054;50.968;5.816;2023-11-19T09:37:10;24.60;;;2.93;;
68993;SDS011;56054;50.968;5.816;2023-11-19T09:40:17;29.33;;;3.40;;
68993;SDS011;56054;50.968;5.816;2023-11-19T09:43:26;22.97;;;3.10;;
68993;SDS011;56054;50.968;5.816;2023-11-19T09:46:34;16.13;;;2.93;;
68993;SDS011;56054;50.968;5.816;2023-11-19T09:49:42;21.00;;;4.23;;
68993;SDS011;56054;50.968;5.816;2023-11-19T09:52:50;22.30;;;3.13;;
68993;SDS011;56054;50.968;5.816;2023-11-19T09:55:57;24.97;;;3.00;;
68993;SDS011;56054;50.968;5.816;2023-11-19T09:59:07;27.47;;;3.10;;
68993;SDS011;56054;50.968;5.816;2023-11-19T10:02:15;19.07;;;3.13;;
68993;SDS011;56054;50.968;5.816;2023-11-19T10:05:24;19.80;;;2.60;;
68993;SDS011;56054;50.968;5.816;2023-11-19T10:08:31;19.47;;;2.87;;
68993;SDS011;56054;50.968;5.816;2023-11-19T10:11:38;23.33;;;3.07;;
68993;SDS011;56054;50.968;5.816;2023-11-19T10:14:45;19.17;;;2.60;;
68993;SDS011;56054;50.968;5.816;2023-11-19T10:17:54;27.30;;;2.60;;
68993;SDS011;56054;50.968;5.816;2023-11-19T10:21:05;35.07;;;3.20;;
68993;SDS011;56054;50.968;5.816;2023-11-19T10:24:12;29.50;;;3.10;;
68993;SDS011;56054;50.968;5.816;2023-11-19T10:27:19;22.90;;;4.20;;
68993;SDS011;56054;50.968;5.816;2023-11-19T10:30:26;15.07;;;2.30;;
68993;SDS011;56054;50.968;5.816;2023-11-19T10:33:35;19.90;;;4.17;;
68993;SDS011;56054;50.968;5.816;2023-11-19T10:36:42;22.93;;;2.70;;
68993;SDS011;56054;50.968;5.816;2023-11-19T10:39:52;17.17;;;2.77;;
68993;SDS011;56054;50.968;5.816;2023-11-19T10:43:03;15.57;;;2.20;;
68993;SDS011;56054;50.968;5.816;2023-11-19T10:46:10;17.20;;;2.50;;
68993;SDS011;56054;50.968;5.816;2023-11-19T10:49:19;18.43;;;2.50;;
68993;SDS011;56054;50.968;5.816;2023-11-19T10:52:26;13.77;;;2.13;;
68993;SDS011;56054;50.968;5.816;2023-11-19T10:55:34;17.23;;;2.00;;
68993;SDS011;56054;50.968;5.816;2023-11-19T10:58:44;15.97;;;2.53;;
68993;SDS011;56054;50.968;5.816;2023-11-19T11:01:52;11.60;;;1.70;;
68993;SDS011;56054;50.968;5.816;2023-11-19T11:05:01;14.83;;;2.50;;
68993;SDS011;56054;50.968;5.816;2023-11-19T11:08:08;16.40;;;2.37;;
68993;SDS011;56054;50.968;5.816;2023-11-19T11:11:15;15.83;;;2.57;;
68993;SDS011;56054;50.968;5.816;2023-11-19T11:14:22;19.17;;;2.70;;
68993;SDS011;56054;50.968;5.816;2023-11-19T11:17:31;20.43;;;2.57;;
68993;SDS011;56054;50.968;5.816;2023-11-19T11:20:40;12.97;;;2.57;;
68993;SDS011;56054;50.968;5.816;2023-11-19T11:23:56;18.13;;;2.90;;
68993;SDS011;56054;50.968;5.816;2023-11-19T11:37:39;24.05;;;2.72;;
68993;SDS011;56054;50.968;5.816;2023-11-19T11:44:48;19.97;;;3.13;;
68993;SDS011;56054;50.968;5.816;2023-11-19T11:51:17;19.67;;;2.87;;
68993;SDS011;56054;50.968;5.816;2023-11-19T11:57:35;23.33;;;3.23;;
68993;SDS011;56054;50.968;5.816;2023-11-19T12:00:43;16.73;;;2.73;;
68993;SDS011;56054;50.968;5.816;2023-11-19T12:03:50;16.33;;;2.67;;
68993;SDS011;56054;50.968;5.816;2023-11-19T12:07:06;19.02;;;2.70;;
68993;SDS011;56054;50.968;5.816;2023-11-19T12:10:15;22.97;;;2.53;;
68993;SDS011;56054;50.968;5.816;2023-11-19T12:13:22;15.15;;;1.73;;
68993;SDS011;56054;50.968;5.816;2023-11-19T12:16:29;12.20;;;2.22;;
68993;SDS011;56054;50.968;5.816;2023-11-19T12:19:36;14.65;;;2.28;;
68993;SDS011;56054;50.968;5.816;2023-11-19T12:22:48;17.23;;;2.17;;
68993;SDS011;56054;50.968;5.816;2023-11-19T12:25:55;13.23;;;2.25;;
68993;SDS011;56054;50.968;5.816;2023-11-19T12:29:03;20.02;;;3.47;;
68993;SDS011;56054;50.968;5.816;2023-11-19T12:32:10;20.20;;;2.80;;
68993;SDS011;56054;50.968;5.816;2023-11-19T12:35:17;14.83;;;2.53;;
68993;SDS011;56054;50.968;5.816;2023-11-19T12:38:24;9.50;;;2.30;;
68993;SDS011;56054;50.968;5.816;2023-11-19T12:41:32;15.20;;;3.50;;
68993;SDS011;56054;50.968;5.816;2023-11-19T12:44:39;17.90;;;3.30;;
68993;SDS011;56054;50.968;5.816;2023-11-19T12:47:46;17.73;;;2.73;;
68993;SDS011;56054;50.968;5.816;2023-11-19T12:50:54;20.93;;;2.67;;
68993;SDS011;56054;50.968;5.816;2023-11-19T12:54:03;13.43;;;2.57;;
68993;SDS011;56054;50.968;5.816;2023-11-19T12:57:10;22.83;;;2.83;;
68993;SDS011;56054;50.968;5.816;2023-11-19T13:00:23;16.97;;;2.67;;
68993;SDS011;56054;50.968;5.816;2023-11-19T13:03:31;17.63;;;2.30;;
68993;SDS011;56054;50.968;5.816;2023-11-19T13:06:44;13.90;;;2.23;;
68993;SDS011;56054;50.968;5.816;2023-11-19T13:10:00;19.27;;;2.93;;
68993;SDS011;56054;50.968;5.816;2023-11-19T13:13:09;19.60;;;3.10;;
68993;SDS011;56054;50.968;5.816;2023-11-19T13:16:16;24.10;;;2.67;;
68993;SDS011;56054;50.968;5.816;2023-11-19T13:19:23;18.40;;;3.30;;
68993;SDS011;56054;50.968;5.816;2023-11-19T13:22:30;11.97;;;1.60;;
68993;SDS011;56054;50.968;5.816;2023-11-19T13:25:37;18.75;;;2.78;;
68993;SDS011;56054;50.968;5.816;2023-11-19T13:28:44;12.23;;;1.90;;
68993;SDS011;56054;50.968;5.816;2023-11-19T13:31:51;20.73;;;2.87;;
68993;SDS011;56054;50.968;5.816;2023-11-19T13:34:58;15.80;;;2.00;;
68993;SDS011;56054;50.968;5.816;2023-11-19T13:38:05;20.63;;;2.73;;
68993;SDS011;56054;50.968;5.816;2023-11-19T13:41:12;13.68;;;2.08;;
68993;SDS011;56054;50.968;5.816;2023-11-19T13:44:19;6.70;;;2.00;;
68993;SDS011;56054;50.968;5.816;2023-11-19T13:47:26;16.53;;;2.33;;
68993;SDS011;56054;50.968;5.816;2023-11-19T13:50:33;10.83;;;2.00;;
68993;SDS011;56054;50.968;5.816;2023-11-19T13:53:40;19.42;;;2.17;;
68993;SDS011;56054;50.968;5.816;2023-11-19T13:56:47;18.80;;;2.33;;
68993;SDS011;56054;50.968;5.816;2023-11-19T13:59:54;20.10;;;2.93;;
68993;SDS011;56054;50.968;5.816;2023-11-19T14:03:01;15.82;;;2.35;;
68993;SDS011;56054;50.968;5.816;2023-11-19T14:06:09;17.90;;;2.43;;
68993;SDS011;56054;50.968;5.816;2023-11-19T14:09:16;15.18;;;2.22;;
68993;SDS011;56054;50.968;5.816;2023-11-19T14:12:23;17.33;;;2.67;;
68993;SDS011;56054;50.968;5.816;2023-11-19T14:15:30;17.37;;;2.80;;
68993;SDS011;56054;50.968;5.816;2023-11-19T14:18:37;16.37;;;2.50;;
68993;SDS011;56054;50.968;5.816;2023-11-19T14:21:44;17.73;;;2.55;;
68993;SDS011;56054;50.968;5.816;2023-11-19T14:24:51;17.43;;;2.57;;
68993;SDS011;56054;50.968;5.816;2023-11-19T14:27:58;15.27;;;1.90;;
68993;SDS011;56054;50.968;5.816;2023-11-19T14:31:05;11.80;;;2.30;;
68993;SDS011;56054;50.968;5.816;2023-11-19T14:34:12;16.52;;;2.25;;
68993;SDS011;56054;50.968;5.816;2023-11-19T14:37:19;15.75;;;2.67;;
68993;SDS011;56054;50.968;5.816;2023-11-19T14:40:26;11.68;;;2.60;;
68993;SDS011;56054;50.968;5.816;2023-11-19T14:43:33;14.60;;;2.00;;
68993;SDS011;56054;50.968;5.816;2023-11-19T14:46:40;13.23;;;2.33;;
68993;SDS011;56054;50.968;5.816;2023-11-19T14:49:47;17.58;;;2.58;;
68993;SDS011;56054;50.968;5.816;2023-11-19T14:52:54;17.07;;;3.30;;
68993;SDS011;56054;50.968;5.816;2023-11-19T14:56:01;19.27;;;3.20;;
68993;SDS011;56054;50.968;5.816;2023-11-19T14:59:08;17.73;;;2.20;;
68993;SDS011;56054;50.968;5.816;2023-11-19T15:02:15;23.57;;;2.33;;
68993;SDS011;56054;50.968;5.816;2023-11-19T15:05:22;21.90;;;2.83;;
68993;SDS011;56054;50.968;5.816;2023-11-19T15:08:29;11.17;;;2.43;;
68993;SDS011;56054;50.968;5.816;2023-11-19T15:11:43;21.57;;;2.73;;
68993;SDS011;56054;50.968;5.816;2023-11-19T15:14:50;25.27;;;2.70;;
68993;SDS011;56054;50.968;5.816;2023-11-19T15:17:57;14.93;;;2.67;;
68993;SDS011;56054;50.968;5.816;2023-11-19T15:21:04;19.13;;;2.50;;
68993;SDS011;56054;50.968;5.816;2023-11-19T15:24:11;18.67;;;2.03;;
68993;SDS011;56054;50.968;5.816;2023-11-19T15:27:18;19.37;;;2.43;;
68993;SDS011;56054;50.968;5.816;2023-11-19T15:30:25;15.80;;;2.43;;
68993;SDS011;56054;50.968;5.816;2023-11-19T15:33:32;19.23;;;2.17;;
68993;SDS011;56054;50.968;5.816;2023-11-19T15:36:39;16.30;;;2.40;;
68993;SDS011;56054;50.968;5.816;2023-11-19T15:39:46;16.20;;;2.33;;
68993;SDS011;56054;50.968;5.816;2023-11-19T15:42:53;19.03;;;2.20;;
68993;SDS011;56054;50.968;5.816;2023-11-19T15:46:00;27.43;;;2.53;;
68993;SDS011;56054;50.968;5.816;2023-11-19T15:49:07;13.77;;;2.00;;
68993;SDS011;56054;50.968;5.816;2023-11-19T15:52:14;22.33;;;3.10;;
68993;SDS011;56054;50.968;5.816;2023-11-19T15:55:22;15.80;;;2.37;;
68993;SDS011;56054;50.968;5.816;2023-11-19T15:58:29;28.30;;;2.33;;
68993;SDS011;56054;50.968;5.816;2023-11-19T16:01:36;15.70;;;2.10;;
68993;SDS011;56054;50.968;5.816;2023-11-19T16:04:43;19.07;;;2.20;;
68993;SDS011;56054;50.968;5.816;2023-11-19T16:07:50;22.33;;;3.03;;
68993;SDS011;56054;50.968;5.816;2023-11-19T16:10:57;16.60;;;2.40;;
68993;SDS011;56054;50.968;5.816;2023-11-19T16:14:04;27.30;;;3.87;;
68993;SDS011;56054;50.968;5.816;2023-11-19T16:17:11;14.47;;;2.27;;
68993;SDS011;56054;50.968;5.816;2023-11-19T16:20:18;23.40;;;3.30;;
68993;SDS011;56054;50.968;5.816;2023-11-19T16:23:25;13.60;;;2.17;;
68993;SDS011;56054;50.968;5.816;2023-11-19T16:26:32;16.13;;;2.13;;
68993;SDS011;56054;50.968;5.816;2023-11-19T16:29:39;22.77;;;2.70;;
68993;SDS011;56054;50.968;5.816;2023-11-19T16:32:53;18.47;;;2.50;;
68993;SDS011;56054;50.968;5.816;2023-11-19T16:36:03;19.07;;;2.73;;
68993;SDS011;56054;50.968;5.816;2023-11-19T16:39:11;20.07;;;2.33;;
68993;SDS011;56054;50.968;5.816;2023-11-19T16:42:18;16.63;;;2.60;;
68993;SDS011;56054;50.968;5.816;2023-11-19T16:45:25;18.47;;;2.50;;
68993;SDS011;56054;50.968;5.816;2023-11-19T16:48:32;18.87;;;2.77;;
68993;SDS011;56054;50.968;5.816;2023-11-19T16:51:39;18.67;;;2.70;;
68993;SDS011;56054;50.968;5.816;2023-11-19T16:54:46;18.53;;;2.30;;
68993;SDS011;56054;50.968;5.816;2023-11-19T16:57:53;14.20;;;2.40;;
68993;SDS011;56054;50.968;5.816;2023-11-19T17:01:00;12.93;;;1.97;;
68993;SDS011;56054;50.968;5.816;2023-11-19T17:04:07;23.10;;;2.60;;
68993;SDS011;56054;50.968;5.816;2023-11-19T17:07:14;13.20;;;2.03;;
68993;SDS011;56054;50.968;5.816;2023-11-19T17:10:21;19.10;;;2.60;;
68993;SDS011;56054;50.968;5.816;2023-11-19T17:13:28;12.10;;;1.87;;
68993;SDS011;56054;50.968;5.816;2023-11-19T17:16:35;15.20;;;2.30;;
68993;SDS011;56054;50.968;5.816;2023-11-19T17:19:42;14.70;;;2.07;;
68993;SDS011;56054;50.968;5.816;2023-11-19T17:22:49;19.90;;;2.50;;
68993;SDS011;56054;50.968;5.816;2023-11-19T17:25:56;7.97;;;2.50;;
68993;SDS011;56054;50.968;5.816;2023-11-19T17:29:03;17.27;;;2.83;;
68993;SDS011;56054;50.968;5.816;2023-11-19T17:32:10;21.40;;;2.00;;
68993;SDS011;56054;50.968;5.816;2023-11-19T17:35:17;18.20;;;2.47;;
68993;SDS011;56054;50.968;5.816;2023-11-19T17:38:24;16.17;;;1.80;;
68993;SDS011;56054;50.968;5.816;2023-11-19T17:41:31;20.80;;;3.07;;
68993;SDS011;56054;50.968;5.816;2023-11-19T17:44:38;11.23;;;2.50;;
68993;SDS011;56054;50.968;5.816;2023-11-19T17:47:45;21.70;;;2.30;;
68993;SDS011;56054;50.968;5.816;2023-11-19T17:50:52;23.43;;;2.23;;
68993;SDS011;56054;50.968;5.816;2023-11-19T17:53:59;22.80;;;2.80;;
68993;SDS011;56054;50.968;5.816;2023-11-19T17:57:06;20.33;;;2.53;;
68993;SDS011;56054;50.968;5.816;2023-11-19T18:00:13;16.70;;;2.20;;
68993;SDS011;56054;50.968;5.816;2023-11-19T18:03:20;13.63;;;2.30;;
68993;SDS011;56054;50.968;5.816;2023-11-19T18:06:27;17.07;;;1.87;;
68993;SDS011;56054;50.968;5.816;2023-11-19T18:09:34;15.07;;;2.33;;
68993;SDS011;56054;50.968;5.816;2023-11-19T18:12:48;17.27;;;2.63;;
68993;SDS011;56054;50.968;5.816;2023-11-19T18:15:55;15.20;;;2.53;;
68993;SDS011;56054;50.968;5.816;2023-11-19T18:19:02;17.07;;;2.47;;
68993;SDS011;56054;50.968;5.816;2023-11-19T18:22:09;23.60;;;3.20;;
68993;SDS011;56054;50.968;5.816;2023-11-19T18:25:16;19.40;;;2.27;;
68993;SDS011;56054;50.968;5.816;2023-11-19T18:28:23;11.40;;;2.53;;
68993;SDS011;56054;50.968;5.816;2023-11-19T18:31:30;18.47;;;2.57;;
68993;SDS011;56054;50.968;5.816;2023-11-19T18:34:37;16.53;;;2.00;;
68993;SDS011;56054;50.968;5.816;2023-11-19T18:37:44;11.67;;;2.10;;
68993;SDS011;56054;50.968;5.816;2023-11-19T18:40:51;16.57;;;2.17;;
68993;SDS011;56054;50.968;5.816;2023-11-19T18:43:58;12.47;;;2.20;;
68993;SDS011;56054;50.968;5.816;2023-11-19T18:47:05;10.30;;;1.97;;
68993;SDS011;56054;50.968;5.816;2023-11-19T18:50:12;18.07;;;2.40;;
68993;SDS011;56054;50.968;5.816;2023-11-19T18:53:19;14.23;;;2.17;;
68993;SDS011;56054;50.968;5.816;2023-11-19T18:56:26;11.10;;;1.83;;